VCV31 SVMT-SVMI
Flight info
| Callsign | VCV31 |
|---|---|
| Flight time | 0h 47m |
| Altitude | 34000 |
| Route | ESMEN UG443 CBC DCT KORLI |
| Aircraft | E190/M-SDE3GILORVW/S |
Departure
| Time | 2026-04-29 20:28 |
|---|---|
| Airport | José Tadeo Monagas International Airport (SVMT) |
Arrival
| Time | 2026-04-29 21:16 |
|---|---|
| Airport | Maiquetía Simón Bolívar International Airport (SVMI) |
| Time | Latitude | Longitude | Altitude | Speed | Heading |
|---|---|---|---|---|---|
| 2026-04-29 20:12 | 9.74857 | -63.15613 | 238 ft | 0 kts | 46° |
| 2026-04-29 20:25 | 9.74858 | -63.15611 | 236 ft | 0 kts | 54° |
| 2026-04-29 20:25 | 9.74856 | -63.15606 | 237 ft | 1 kts | 91° |
| 2026-04-29 20:25 | 9.74843 | -63.15597 | 239 ft | 5 kts | 148° |
| 2026-04-29 20:25 | 9.74794 | -63.15563 | 234 ft | 12 kts | 141° |
| 2026-04-29 20:26 | 9.74711 | -63.15567 | 232 ft | 15 kts | 221° |
| 2026-04-29 20:26 | 9.74633 | -63.15652 | 231 ft | 18 kts | 228° |
| 2026-04-29 20:26 | 9.74541 | -63.15757 | 232 ft | 21 kts | 227° |
| 2026-04-29 20:26 | 9.74439 | -63.15871 | 232 ft | 23 kts | 229° |
| 2026-04-29 20:27 | 9.74343 | -63.15982 | 233 ft | 18 kts | 235° |
| 2026-04-29 20:27 | 9.74323 | -63.16041 | 236 ft | 12 kts | 250° |
| 2026-04-29 20:27 | 9.74309 | -63.16024 | 234 ft | 3 kts | 58° |
| 2026-04-29 20:27 | 9.74352 | -63.15976 | 233 ft | 23 kts | 48° |
| 2026-04-29 20:28 | 9.74608 | -63.15681 | 231 ft | 91 kts | 48° |
| 2026-04-29 20:28 | 9.75176 | -63.15039 | 240 ft | 150 kts | 49° |
| 2026-04-29 20:28 | 9.75969 | -63.14204 | 677 ft | 175 kts | 46° |
| 2026-04-29 20:28 | 9.76917 | -63.13304 | 1252 ft | 206 kts | 39° |
| 2026-04-29 20:29 | 9.78346 | -63.12901 | 2179 ft | 226 kts | 358° |
| 2026-04-29 20:29 | 9.79810 | -63.13490 | 3321 ft | 229 kts | 329° |
| 2026-04-29 20:29 | 9.81013 | -63.14562 | 4423 ft | 232 kts | 310° |
| 2026-04-29 20:29 | 9.81789 | -63.15995 | 5437 ft | 235 kts | 288° |
| 2026-04-29 20:30 | 9.82043 | -63.17602 | 6404 ft | 234 kts | 273° |
| 2026-04-29 20:30 | 9.82098 | -63.19264 | 7208 ft | 237 kts | 271° |
| 2026-04-29 20:30 | 9.82162 | -63.20944 | 8027 ft | 241 kts | 272° |
| 2026-04-29 20:30 | 9.82236 | -63.22665 | 8830 ft | 249 kts | 271° |
| 2026-04-29 20:31 | 9.82303 | -63.24497 | 9359 ft | 279 kts | 271° |
| 2026-04-29 20:31 | 9.82343 | -63.26530 | 10039 ft | 301 kts | 270° |
| 2026-04-29 20:31 | 9.82347 | -63.28761 | 10575 ft | 328 kts | 269° |
| 2026-04-29 20:31 | 9.82311 | -63.31146 | 11258 ft | 348 kts | 268° |
| 2026-04-29 20:32 | 9.82235 | -63.33655 | 12072 ft | 361 kts | 267° |
| 2026-04-29 20:32 | 9.82122 | -63.36234 | 13017 ft | 370 kts | 266° |
| 2026-04-29 20:32 | 9.81971 | -63.38869 | 13967 ft | 377 kts | 266° |
| 2026-04-29 20:32 | 9.81787 | -63.41539 | 14977 ft | 381 kts | 265° |
| 2026-04-29 20:33 | 9.81568 | -63.44231 | 16002 ft | 386 kts | 265° |
| 2026-04-29 20:33 | 9.81788 | -63.46970 | 16856 ft | 394 kts | 281° |
| 2026-04-29 20:33 | 9.82484 | -63.49686 | 17675 ft | 401 kts | 285° |
| 2026-04-29 20:33 | 9.83189 | -63.52442 | 18457 ft | 406 kts | 284° |
| 2026-04-29 20:34 | 9.83885 | -63.55235 | 19173 ft | 411 kts | 283° |
| 2026-04-29 20:34 | 9.84580 | -63.58062 | 19856 ft | 416 kts | 283° |
| 2026-04-29 20:34 | 9.85280 | -63.60924 | 20508 ft | 421 kts | 283° |
| 2026-04-29 20:34 | 9.85986 | -63.63815 | 21175 ft | 425 kts | 283° |
| 2026-04-29 20:35 | 9.86700 | -63.66745 | 21810 ft | 429 kts | 282° |
| 2026-04-29 20:35 | 9.87409 | -63.69662 | 22430 ft | 433 kts | 282° |
| 2026-04-29 20:35 | 9.88134 | -63.72644 | 23059 ft | 437 kts | 282° |
| 2026-04-29 20:35 | 9.88868 | -63.75660 | 23630 ft | 441 kts | 282° |
| 2026-04-29 20:36 | 9.89603 | -63.78688 | 24189 ft | 443 kts | 283° |
| 2026-04-29 20:36 | 9.90342 | -63.81727 | 24723 ft | 445 kts | 283° |
| 2026-04-29 20:36 | 9.91085 | -63.84784 | 25212 ft | 447 kts | 283° |
| 2026-04-29 20:36 | 9.91829 | -63.87851 | 25674 ft | 449 kts | 283° |
| 2026-04-29 20:37 | 9.92581 | -63.90940 | 26111 ft | 452 kts | 283° |
| 2026-04-29 20:37 | 9.93338 | -63.94047 | 26554 ft | 455 kts | 283° |
| 2026-04-29 20:37 | 9.94098 | -63.97168 | 26999 ft | 457 kts | 283° |
| 2026-04-29 20:37 | 9.94861 | -64.00302 | 27472 ft | 458 kts | 283° |
| 2026-04-29 20:38 | 9.95614 | -64.03398 | 27991 ft | 457 kts | 284° |
| 2026-04-29 20:38 | 9.96360 | -64.06517 | 28551 ft | 456 kts | 284° |
| 2026-04-29 20:38 | 9.97108 | -64.09649 | 28841 ft | 460 kts | 284° |
| 2026-04-29 20:38 | 9.97862 | -64.12804 | 29326 ft | 460 kts | 284° |
| 2026-04-29 20:39 | 9.98613 | -64.15947 | 29874 ft | 457 kts | 284° |
| 2026-04-29 20:39 | 9.99356 | -64.19061 | 30445 ft | 451 kts | 284° |
| 2026-04-29 20:39 | 10.00087 | -64.22126 | 31096 ft | 443 kts | 285° |
| 2026-04-29 20:39 | 10.00809 | -64.25155 | 31608 ft | 440 kts | 285° |
| 2026-04-29 20:40 | 10.01525 | -64.28156 | 32126 ft | 436 kts | 285° |
| 2026-04-29 20:40 | 10.02235 | -64.31134 | 32634 ft | 432 kts | 285° |
| 2026-04-29 20:40 | 10.02936 | -64.34083 | 33182 ft | 428 kts | 285° |
| 2026-04-29 20:40 | 10.03631 | -64.37001 | 33671 ft | 424 kts | 285° |
| 2026-04-29 20:41 | 10.04325 | -64.39900 | 33935 ft | 425 kts | 285° |
| 2026-04-29 20:41 | 10.05016 | -64.42800 | 33916 ft | 420 kts | 285° |
| 2026-04-29 20:41 | 10.06380 | -64.48522 | 33893 ft | 414 kts | 285° |
| 2026-04-29 20:42 | 10.07718 | -64.54147 | 33883 ft | 412 kts | 285° |
| 2026-04-29 20:42 | 10.09061 | -64.59797 | 33906 ft | 412 kts | 285° |
| 2026-04-29 20:43 | 10.10408 | -64.65464 | 33871 ft | 412 kts | 285° |
| 2026-04-29 20:43 | 10.11969 | -64.71062 | 33844 ft | 412 kts | 290° |
| 2026-04-29 20:44 | 10.13813 | -64.76534 | 33847 ft | 413 kts | 290° |
| 2026-04-29 20:44 | 10.15683 | -64.82048 | 33844 ft | 414 kts | 290° |
| 2026-04-29 20:45 | 10.17575 | -64.87572 | 33846 ft | 414 kts | 290° |
| 2026-04-29 20:45 | 10.19465 | -64.93117 | 33859 ft | 415 kts | 290° |
| 2026-04-29 20:46 | 10.21355 | -64.98660 | 33862 ft | 416 kts | 290° |
| 2026-04-29 20:46 | 10.23238 | -65.04178 | 33860 ft | 416 kts | 290° |
| 2026-04-29 20:47 | 10.25134 | -65.09741 | 33861 ft | 417 kts | 290° |
| 2026-04-29 20:47 | 10.27032 | -65.15317 | 33861 ft | 418 kts | 290° |
| 2026-04-29 20:48 | 10.28925 | -65.20897 | 33848 ft | 418 kts | 290° |
| 2026-04-29 20:48 | 10.29876 | -65.23700 | 33594 ft | 422 kts | 290° |
| 2026-04-29 20:48 | 10.30824 | -65.26497 | 33775 ft | 417 kts | 290° |
| 2026-04-29 20:49 | 10.32729 | -65.32099 | 33825 ft | 419 kts | 290° |
| 2026-04-29 20:49 | 10.34629 | -65.37700 | 33836 ft | 420 kts | 289° |
| 2026-04-29 20:50 | 10.36527 | -65.43298 | 33864 ft | 419 kts | 289° |
| 2026-04-29 20:50 | 10.38421 | -65.48890 | 33893 ft | 417 kts | 289° |
| 2026-04-29 20:51 | 10.40318 | -65.54490 | 33663 ft | 419 kts | 290° |
| 2026-04-29 20:51 | 10.41255 | -65.57253 | 33532 ft | 419 kts | 289° |
| 2026-04-29 20:51 | 10.42202 | -65.60056 | 33420 ft | 420 kts | 289° |
| 2026-04-29 20:52 | 10.43150 | -65.62859 | 33307 ft | 422 kts | 289° |
| 2026-04-29 20:52 | 10.44111 | -65.65688 | 33068 ft | 422 kts | 289° |
| 2026-04-29 20:52 | 10.45068 | -65.68513 | 32833 ft | 423 kts | 289° |
| 2026-04-29 20:52 | 10.46028 | -65.71347 | 32586 ft | 424 kts | 289° |
| 2026-04-29 20:53 | 10.47939 | -65.77009 | 32151 ft | 426 kts | 289° |
| 2026-04-29 20:53 | 10.48903 | -65.79862 | 31800 ft | 427 kts | 289° |
| 2026-04-29 20:53 | 10.49868 | -65.82719 | 31445 ft | 428 kts | 289° |
| 2026-04-29 20:54 | 10.51808 | -65.88465 | 30656 ft | 431 kts | 289° |
| 2026-04-29 20:54 | 10.52781 | -65.91351 | 30277 ft | 433 kts | 289° |
| 2026-04-29 20:54 | 10.53763 | -65.94260 | 29884 ft | 436 kts | 289° |
| 2026-04-29 20:55 | 10.54738 | -65.97152 | 29429 ft | 439 kts | 289° |
| 2026-04-29 20:55 | 10.55732 | -66.00101 | 28992 ft | 440 kts | 289° |
| 2026-04-29 20:55 | 10.56727 | -66.03057 | 28564 ft | 441 kts | 289° |
| 2026-04-29 20:55 | 10.57721 | -66.06016 | 28130 ft | 440 kts | 288° |
| 2026-04-29 20:56 | 10.58631 | -66.08947 | 27697 ft | 439 kts | 287° |
| 2026-04-29 20:56 | 10.59539 | -66.11899 | 27276 ft | 437 kts | 287° |
| 2026-04-29 20:56 | 10.60446 | -66.14836 | 26870 ft | 435 kts | 287° |
| 2026-04-29 20:56 | 10.61352 | -66.17768 | 26471 ft | 433 kts | 287° |
| 2026-04-29 20:57 | 10.62254 | -66.20689 | 26071 ft | 432 kts | 287° |
| 2026-04-29 20:57 | 10.63156 | -66.23606 | 25663 ft | 432 kts | 286° |
| 2026-04-29 20:57 | 10.64055 | -66.26508 | 25270 ft | 430 kts | 286° |
| 2026-04-29 20:57 | 10.64948 | -66.29404 | 24898 ft | 428 kts | 286° |
| 2026-04-29 20:58 | 10.65841 | -66.32295 | 24523 ft | 426 kts | 286° |
| 2026-04-29 20:58 | 10.66722 | -66.35140 | 24153 ft | 425 kts | 286° |
| 2026-04-29 20:58 | 10.67607 | -66.38002 | 23778 ft | 423 kts | 286° |
| 2026-04-29 20:58 | 10.68489 | -66.40855 | 23402 ft | 422 kts | 286° |
| 2026-04-29 20:59 | 10.69368 | -66.43700 | 22955 ft | 419 kts | 286° |
| 2026-04-29 20:59 | 10.70238 | -66.46517 | 22533 ft | 417 kts | 286° |
| 2026-04-29 20:59 | 10.71104 | -66.49328 | 22073 ft | 415 kts | 286° |
| 2026-04-29 20:59 | 10.71966 | -66.52125 | 21542 ft | 413 kts | 286° |
| 2026-04-29 21:00 | 10.72819 | -66.54902 | 21034 ft | 410 kts | 286° |
| 2026-04-29 21:00 | 10.73662 | -66.57655 | 20533 ft | 406 kts | 286° |
| 2026-04-29 21:00 | 10.74502 | -66.60387 | 20050 ft | 403 kts | 286° |
| 2026-04-29 21:00 | 10.75334 | -66.63096 | 19545 ft | 400 kts | 287° |
| 2026-04-29 21:01 | 10.76162 | -66.65786 | 19086 ft | 397 kts | 287° |
| 2026-04-29 21:01 | 10.76983 | -66.68433 | 18608 ft | 395 kts | 287° |
| 2026-04-29 21:01 | 10.77807 | -66.71087 | 18144 ft | 393 kts | 287° |
| 2026-04-29 21:01 | 10.78626 | -66.73729 | 17619 ft | 390 kts | 287° |
| 2026-04-29 21:02 | 10.79435 | -66.76354 | 17237 ft | 384 kts | 287° |
| 2026-04-29 21:02 | 10.80465 | -66.78839 | 17134 ft | 385 kts | 302° |
| 2026-04-29 21:02 | 10.82231 | -66.80881 | 16870 ft | 385 kts | 318° |
| 2026-04-29 21:02 | 10.84126 | -66.82798 | 16621 ft | 384 kts | 312° |
| 2026-04-29 21:03 | 10.85725 | -66.84971 | 16368 ft | 383 kts | 302° |
| 2026-04-29 21:03 | 10.86990 | -66.87349 | 16129 ft | 382 kts | 295° |
| 2026-04-29 21:03 | 10.87977 | -66.89857 | 15894 ft | 381 kts | 288° |
| 2026-04-29 21:03 | 10.88733 | -66.92411 | 15650 ft | 369 kts | 284° |
| 2026-04-29 21:04 | 10.89207 | -66.94919 | 15394 ft | 354 kts | 277° |
| 2026-04-29 21:04 | 10.89418 | -66.97368 | 15166 ft | 341 kts | 272° |
| 2026-04-29 21:04 | 10.89436 | -66.99717 | 14934 ft | 330 kts | 267° |
| 2026-04-29 21:04 | 10.89279 | -67.02012 | 14702 ft | 319 kts | 262° |
| 2026-04-29 21:05 | 10.88963 | -67.04216 | 14472 ft | 310 kts | 258° |
| 2026-04-29 21:05 | 10.88506 | -67.06331 | 14243 ft | 302 kts | 255° |
| 2026-04-29 21:05 | 10.87949 | -67.08362 | 14020 ft | 294 kts | 250° |
| 2026-04-29 21:05 | 10.87223 | -67.10272 | 13793 ft | 286 kts | 244° |
| 2026-04-29 21:06 | 10.86369 | -67.12079 | 13554 ft | 280 kts | 240° |
| 2026-04-29 21:06 | 10.85427 | -67.13793 | 13297 ft | 275 kts | 236° |
| 2026-04-29 21:06 | 10.84412 | -67.15394 | 13054 ft | 271 kts | 232° |
| 2026-04-29 21:06 | 10.83295 | -67.16930 | 12809 ft | 269 kts | 229° |
| 2026-04-29 21:07 | 10.82087 | -67.18378 | 12591 ft | 268 kts | 225° |
| 2026-04-29 21:07 | 10.81209 | -67.19321 | 12223 ft | 274 kts | 222° |
| 2026-04-29 21:07 | 10.79808 | -67.20664 | 11763 ft | 277 kts | 219° |
| 2026-04-29 21:07 | 10.78835 | -67.21527 | 11294 ft | 282 kts | 217° |
| 2026-04-29 21:08 | 10.76735 | -67.23112 | 10439 ft | 285 kts | 210° |
| 2026-04-29 21:08 | 10.75038 | -67.24155 | 9817 ft | 285 kts | 206° |
| 2026-04-29 21:08 | 10.73274 | -67.25083 | 9157 ft | 285 kts | 202° |
| 2026-04-29 21:08 | 10.71453 | -67.25892 | 8359 ft | 287 kts | 199° |
| 2026-04-29 21:09 | 10.69563 | -67.26570 | 7551 ft | 289 kts | 195° |
| 2026-04-29 21:09 | 10.67627 | -67.27107 | 6783 ft | 288 kts | 192° |
| 2026-04-29 21:09 | 10.65657 | -67.27352 | 5947 ft | 282 kts | 175° |
| 2026-04-29 21:09 | 10.63848 | -67.26710 | 5085 ft | 274 kts | 144° |
| 2026-04-29 21:10 | 10.62584 | -67.25349 | 4227 ft | 260 kts | 123° |
| 2026-04-29 21:10 | 10.61699 | -67.23875 | 4172 ft | 225 kts | 122° |
| 2026-04-29 21:10 | 10.60820 | -67.22558 | 4549 ft | 228 kts | 125° |
| 2026-04-29 21:10 | 10.60056 | -67.21118 | 3995 ft | 236 kts | 112° |
| 2026-04-29 21:11 | 10.59724 | -67.19541 | 3559 ft | 229 kts | 89° |
| 2026-04-29 21:11 | 10.59867 | -67.17951 | 3328 ft | 221 kts | 84° |
| 2026-04-29 21:11 | 10.59922 | -67.16433 | 3085 ft | 204 kts | 91° |
| 2026-04-29 21:11 | 10.59912 | -67.15065 | 2836 ft | 181 kts | 88° |
| 2026-04-29 21:12 | 10.59966 | -67.13904 | 2641 ft | 149 kts | 87° |
| 2026-04-29 21:12 | 10.60004 | -67.12919 | 2454 ft | 133 kts | 88° |
| 2026-04-29 21:12 | 10.60027 | -67.11998 | 2295 ft | 131 kts | 88° |
| 2026-04-29 21:12 | 10.60057 | -67.11067 | 2137 ft | 132 kts | 87° |
| 2026-04-29 21:13 | 10.60087 | -67.10137 | 1969 ft | 131 kts | 88° |
| 2026-04-29 21:13 | 10.60120 | -67.09209 | 1794 ft | 131 kts | 87° |
| 2026-04-29 21:13 | 10.60155 | -67.08280 | 1619 ft | 131 kts | 89° |
| 2026-04-29 21:13 | 10.60178 | -67.07360 | 1442 ft | 129 kts | 89° |
| 2026-04-29 21:14 | 10.60206 | -67.06454 | 1267 ft | 127 kts | 88° |
| 2026-04-29 21:14 | 10.60236 | -67.05562 | 1097 ft | 125 kts | 89° |
| 2026-04-29 21:14 | 10.60272 | -67.04675 | 941 ft | 125 kts | 89° |
| 2026-04-29 21:14 | 10.60308 | -67.03759 | 849 ft | 132 kts | 87° |
| 2026-04-29 21:15 | 10.60349 | -67.02825 | 667 ft | 134 kts | 88° |
| 2026-04-29 21:15 | 10.60366 | -67.01903 | 425 ft | 126 kts | 88° |
| 2026-04-29 21:15 | 10.60386 | -67.01068 | 253 ft | 109 kts | 89° |
| 2026-04-29 21:15 | 10.60406 | -67.00441 | 226 ft | 54 kts | 88° |
| 2026-04-29 21:16 | 10.60359 | -67.00302 | 225 ft | 7 kts | 180° |
| 2026-04-29 21:16 | 10.60338 | -67.00302 | 224 ft | 5 kts | 180° |
| 2026-04-29 21:16 | 10.60274 | -67.00302 | 221 ft | 14 kts | 179° |
| 2026-04-29 21:16 | 10.60197 | -67.00300 | 221 ft | 13 kts | 178° |
| 2026-04-29 21:17 | 10.60125 | -67.00298 | 223 ft | 11 kts | 179° |
| 2026-04-29 21:17 | 10.60039 | -67.00294 | 224 ft | 14 kts | 177° |
| 2026-04-29 21:17 | 10.59953 | -67.00290 | 224 ft | 12 kts | 167° |
| 2026-04-29 21:17 | 10.59908 | -67.00206 | 222 ft | 15 kts | 94° |
| 2026-04-29 21:18 | 10.59908 | -67.00107 | 221 ft | 11 kts | 89° |
| 2026-04-29 21:18 | 10.59878 | -67.00079 | 220 ft | 6 kts | 172° |
| 2026-04-29 21:18 | 10.59849 | -67.00078 | 220 ft | 3 kts | 178° |
| 2026-04-29 21:18 | 10.59838 | -67.00077 | 220 ft | 1 kts | 178° |
| 2026-04-29 21:19 | 10.59833 | -67.00077 | 220 ft | 0 kts | 178° |